createdAt,value
2019-05-13T00:02:55.777Z,69.60
2019-05-13T00:06:01.338Z,69.70
2019-05-13T00:09:07.348Z,69.70
2019-05-13T00:12:13.631Z,69.60
2019-05-13T00:15:17.743Z,69.70
2019-05-13T00:18:24.289Z,69.50
2019-05-13T00:21:28.678Z,69.60
2019-05-13T00:24:35.821Z,69.70
2019-05-13T00:27:40.107Z,69.20
2019-05-13T00:30:44.724Z,69.80
2019-05-13T00:33:49.267Z,70.00
2019-05-13T00:37:07.410Z,70.10
2019-05-13T00:40:03.812Z,69.60
2019-05-13T00:43:07.244Z,70.00
2019-05-13T00:46:14.064Z,70.00
2019-05-13T00:49:17.803Z,70.00
2019-05-13T00:52:23.554Z,69.90
2019-05-13T00:55:27.975Z,70.00
2019-05-13T00:58:33.513Z,70.70
2019-05-13T01:01:37.954Z,70.00
2019-05-13T01:04:44.179Z,70.10
2019-05-13T01:07:48.340Z,70.10
2019-05-13T01:10:53.697Z,70.00
2019-05-13T01:13:58.226Z,69.80
2019-05-13T01:17:03.838Z,69.80
2019-05-13T01:20:09.015Z,69.90
2019-05-13T01:23:14.175Z,69.70
2019-05-13T01:26:18.699Z,69.80
2019-05-13T01:29:23.854Z,69.90
2019-05-13T01:32:30.284Z,69.90
2019-05-13T01:35:34.618Z,70.00
2019-05-13T01:38:38.986Z,70.20
2019-05-13T01:41:43.818Z,70.20
2019-05-13T01:44:53.388Z,70.40
2019-05-13T01:47:57.597Z,70.30
2019-05-13T01:51:03.814Z,70.80
2019-05-13T01:54:08.018Z,70.90
2019-05-13T01:57:14.249Z,70.90
2019-05-13T02:00:19.068Z,70.80
2019-05-13T02:03:24.568Z,70.80
2019-05-13T02:06:29.140Z,70.90
2019-05-13T02:09:33.991Z,70.70
2019-05-13T02:12:38.421Z,71.20
2019-05-13T02:15:45.123Z,70.30
2019-05-13T02:18:48.839Z,70.40
2019-05-13T02:21:54.297Z,70.40
2019-05-13T02:24:58.769Z,70.50
2019-05-13T02:28:09.468Z,70.50
2019-05-13T02:31:12.488Z,70.60
2019-05-13T02:34:16.650Z,70.70
2019-05-13T02:37:23.171Z,70.70
2019-05-13T02:40:27.131Z,70.70
2019-05-13T02:43:33.331Z,70.80
2019-05-13T02:46:37.552Z,71.60
2019-05-13T02:49:43.063Z,70.70
2019-05-13T02:52:47.629Z,70.70
2019-05-13T02:55:52.669Z,71.40
2019-05-13T02:58:57.106Z,70.80
2019-05-13T03:02:03.653Z,70.80
2019-05-13T03:05:07.962Z,70.80
2019-05-13T03:08:12.958Z,70.90
2019-05-13T03:11:17.487Z,71.10
2019-05-13T03:14:23.817Z,71.00
2019-05-13T03:17:32.977Z,70.90
2019-05-13T03:20:37.538Z,70.90
2019-05-13T03:23:43.967Z,70.80
2019-05-13T03:26:47.862Z,70.80
2019-05-13T03:29:53.383Z,70.60
2019-05-13T03:33:01.704Z,70.70
2019-05-13T03:36:06.635Z,70.80
2019-05-13T03:39:15.291Z,71.00
2019-05-13T03:42:16.205Z,71.00
2019-05-13T03:45:24.359Z,71.00
2019-05-13T03:48:29.324Z,71.00
2019-05-13T03:51:33.676Z,71.10
2019-05-13T03:54:38.224Z,71.20
2019-05-13T03:57:42.760Z,71.20
2019-05-13T04:00:47.178Z,71.40
2019-05-13T04:03:52.798Z,71.70
2019-05-13T04:06:57.360Z,71.90
2019-05-13T04:10:03.639Z,72.40
2019-05-13T04:13:08.135Z,74.60
2019-05-13T04:16:13.353Z,75.30
2019-05-13T04:19:17.797Z,76.00
2019-05-13T04:22:22.983Z,75.60
2019-05-13T04:25:27.783Z,76.00
2019-05-13T04:28:33.307Z,77.40
2019-05-13T04:31:43.989Z,77.20
2019-05-13T04:34:48.287Z,76.60
2019-05-13T04:37:53.067Z,76.90
2019-05-13T04:40:57.483Z,79.00
2019-05-13T04:44:02.636Z,81.00
2019-05-13T04:47:07.277Z,82.60
2019-05-13T04:50:12.832Z,83.80
2019-05-13T04:53:17.249Z,84.50
2019-05-13T04:56:22.342Z,84.30
2019-05-13T04:59:27.010Z,84.10
2019-05-13T05:03:22.704Z,82.60
2019-05-13T05:06:42.337Z,81.10
2019-05-13T05:10:26.386Z,79.20
2019-05-13T05:14:02.703Z,78.60
2019-05-13T05:17:28.997Z,78.20
2019-05-13T05:20:51.931Z,78.10
2019-05-13T05:24:35.883Z,78.00
2019-05-13T05:28:05.961Z,76.90
2019-05-13T05:31:52.022Z,76.30
2019-05-13T05:35:52.362Z,75.90
2019-05-13T05:39:09.268Z,75.60
2019-05-13T05:42:16.073Z,73.00
2019-05-13T05:45:22.038Z,72.90
2019-05-13T05:48:28.442Z,72.80
2019-05-13T05:51:35.090Z,71.90
2019-05-13T05:54:42.209Z,71.60
2019-05-13T05:57:47.668Z,70.90
2019-05-13T06:00:56.102Z,71.50
2019-05-13T06:04:01.577Z,71.00
2019-05-13T06:07:06.193Z,68.80
2019-05-13T06:10:11.501Z,69.60
2019-05-13T06:13:16.255Z,67.00
2019-05-13T06:16:21.804Z,68.40
2019-05-13T06:19:26.310Z,68.10
2019-05-13T06:22:32.054Z,69.10
2019-05-13T06:25:37.023Z,70.00
2019-05-13T06:28:41.558Z,70.20
2019-05-13T06:31:46.048Z,70.50
2019-05-13T06:34:52.527Z,69.00
2019-05-13T06:37:56.801Z,69.80
2019-05-13T06:41:06.687Z,69.90
2019-05-13T06:44:08.374Z,69.10
2019-05-13T06:47:12.677Z,68.90
2019-05-13T06:50:16.979Z,66.10
2019-05-13T06:53:21.861Z,66.30
2019-05-13T06:56:26.669Z,65.80
2019-05-13T06:59:31.604Z,66.40
2019-05-13T07:02:36.444Z,65.70
2019-05-13T07:05:42.358Z,64.40
2019-05-13T07:08:46.811Z,64.00
2019-05-13T07:11:51.903Z,63.00
2019-05-13T07:14:57.296Z,63.80
2019-05-13T07:18:02.416Z,64.60
2019-05-13T07:21:06.891Z,63.50
2019-05-13T07:24:12.743Z,63.00
2019-05-13T07:27:17.349Z,60.40
2019-05-13T07:30:45.314Z,57.50
2019-05-13T07:33:51.773Z,57.70
2019-05-13T07:36:56.158Z,59.80
2019-05-13T07:40:02.638Z,60.20
2019-05-13T07:43:06.713Z,60.70
2019-05-13T07:46:12.586Z,62.30
2019-05-13T07:49:17.038Z,63.90
2019-05-13T07:52:22.777Z,63.10
2019-05-13T07:55:27.311Z,61.00
2019-05-13T07:58:36.523Z,61.30
2019-05-13T08:01:38.032Z,60.00
2019-05-13T08:04:42.980Z,60.80
2019-05-13T08:07:47.299Z,61.80
2019-05-13T08:10:52.089Z,62.30
2019-05-13T08:13:56.969Z,61.50
2019-05-13T08:17:02.601Z,60.20
2019-05-13T08:20:07.666Z,61.20
2019-05-13T08:23:12.322Z,61.70
2019-05-13T08:26:16.757Z,61.10
2019-05-13T08:29:22.628Z,61.70
2019-05-13T08:32:26.955Z,62.00
2019-05-13T08:35:31.766Z,61.10
2019-05-13T08:38:36.702Z,61.00
2019-05-13T09:30:03.596Z,63.00
2019-05-13T09:33:08.022Z,62.50
2019-05-13T09:36:12.743Z,61.90
2019-05-13T09:39:17.048Z,63.20
2019-05-13T09:42:21.859Z,63.90
2019-05-13T09:45:26.583Z,59.90
2019-05-13T09:48:32.114Z,56.70
2019-05-13T09:51:36.588Z,57.30
2019-05-13T09:54:42.450Z,58.60
2019-05-13T09:57:47.281Z,51.70
2019-05-13T10:00:52.938Z,54.90
2019-05-13T10:03:58.261Z,56.10
2019-05-13T10:07:02.914Z,55.70
2019-05-13T10:10:08.313Z,54.50
2019-05-13T10:13:15.532Z,54.30
2019-05-13T10:16:21.766Z,56.10
2019-05-13T10:19:25.800Z,56.20
2019-05-13T10:22:31.928Z,54.70
2019-05-13T10:25:36.979Z,55.60
2019-05-13T10:28:42.658Z,54.80
2019-05-13T10:31:48.014Z,55.30
2019-05-13T10:34:54.155Z,53.90
2019-05-13T10:37:58.667Z,53.70
2019-05-13T10:41:03.700Z,53.80
2019-05-13T10:44:11.863Z,56.30
2019-05-13T10:47:14.702Z,54.00
2019-05-13T10:50:21.606Z,53.70
2019-05-13T10:53:25.501Z,53.70
2019-05-13T10:56:32.760Z,49.60
2019-05-13T10:59:35.864Z,49.70
2019-05-13T11:02:42.425Z,50.90
2019-05-13T11:05:47.930Z,52.10
2019-05-13T11:08:53.665Z,53.60
2019-05-13T11:12:02.036Z,52.60
2019-05-13T11:15:06.550Z,51.10
2019-05-13T11:18:19.136Z,52.70
2019-05-13T11:21:17.155Z,53.60
2019-05-13T11:24:23.005Z,51.30
2019-05-13T11:27:27.482Z,50.90
2019-05-13T11:30:32.034Z,52.90
2019-05-13T11:33:36.455Z,56.10
2019-05-13T11:36:43.070Z,55.10
2019-05-13T11:39:47.182Z,40.40
2019-05-13T11:42:52.636Z,38.80
2019-05-13T11:45:57.228Z,43.90
2019-05-13T11:49:02.734Z,45.30
2019-05-13T11:52:07.685Z,48.30
2019-05-13T11:55:15.008Z,51.10
2019-05-13T11:58:19.301Z,52.00
2019-05-13T12:01:23.981Z,47.60
2019-05-13T12:04:47.445Z,49.80
2019-05-13T12:07:53.472Z,51.00
2019-05-13T12:10:58.073Z,52.30
2019-05-13T12:14:02.749Z,52.00
2019-05-13T12:17:07.146Z,50.20
2019-05-13T12:20:12.880Z,46.60
2019-05-13T12:23:17.258Z,46.70
2019-05-13T12:26:23.744Z,47.70
2019-05-13T12:29:28.097Z,48.70
2019-05-13T12:32:32.742Z,47.70
2019-05-13T12:35:37.129Z,48.20
2019-05-13T12:38:44.260Z,47.60
2019-05-13T12:41:47.567Z,47.20
2019-05-13T12:45:04.108Z,47.70
2019-05-13T12:48:03.161Z,49.50
2019-05-13T12:51:13.980Z,49.60
2019-05-13T12:54:18.404Z,50.90
2019-05-13T12:57:23.312Z,52.10
2019-05-13T13:00:28.173Z,52.70
2019-05-13T13:03:33.179Z,50.10
2019-05-13T13:06:41.710Z,50.90
2019-05-13T13:09:43.768Z,47.90
2019-05-13T13:12:49.162Z,44.10
2019-05-13T13:15:53.580Z,43.40
2019-05-13T13:18:57.953Z,45.60
2019-05-13T13:22:07.299Z,46.00
2019-05-13T13:25:09.021Z,44.70
2019-05-13T13:28:15.671Z,45.60
2019-05-13T13:31:42.728Z,47.20
2019-05-13T13:34:45.231Z,46.60
2019-05-13T13:37:52.843Z,48.00
2019-05-13T13:40:55.556Z,49.10
2019-05-13T13:44:05.419Z,49.30
2019-05-13T13:47:06.403Z,49.40
2019-05-13T13:50:11.739Z,51.30
2019-05-13T13:53:18.224Z,52.70
2019-05-13T13:56:25.429Z,52.70
2019-05-13T13:59:35.866Z,52.30
2019-05-13T14:02:39.079Z,52.40
2019-05-13T14:05:43.474Z,51.90
2019-05-13T14:08:47.822Z,49.80
2019-05-13T14:11:52.149Z,50.30
2019-05-13T14:15:15.808Z,50.20
2019-05-13T14:18:26.372Z,48.70
2019-05-13T14:21:26.166Z,50.30
2019-05-13T14:24:33.214Z,49.20
2019-05-13T14:27:41.794Z,47.30
2019-05-13T14:30:45.267Z,47.40
2019-05-13T14:33:52.072Z,48.70
2019-05-13T14:37:15.231Z,48.20
2019-05-13T14:40:22.442Z,48.60
2019-05-13T14:43:28.215Z,48.40
2019-05-13T14:46:46.724Z,48.90
2019-05-13T14:49:38.701Z,48.80
2019-05-13T14:52:43.085Z,49.70
2019-05-13T14:55:48.979Z,49.70
2019-05-13T14:58:53.387Z,50.10
2019-05-13T15:01:57.751Z,50.80
2019-05-13T15:05:02.768Z,50.20
2019-05-13T15:08:07.351Z,51.30
2019-05-13T15:11:12.521Z,51.70
2019-05-13T15:14:17.120Z,51.00
2019-05-13T15:17:21.882Z,50.60
2019-05-13T15:20:26.458Z,50.60
2019-05-13T15:23:32.305Z,50.50
2019-05-13T15:26:36.611Z,49.60
2019-05-13T15:29:42.051Z,50.00
2019-05-13T15:32:46.429Z,49.30
2019-05-13T15:35:51.955Z,49.80
2019-05-13T15:38:56.601Z,50.20
2019-05-13T15:42:01.931Z,50.00
2019-05-13T15:45:07.223Z,50.40
2019-05-13T15:48:11.694Z,50.20
2019-05-13T15:51:16.152Z,50.60
2019-05-13T15:54:22.097Z,50.20
2019-05-13T15:57:26.651Z,49.90
2019-05-13T16:00:31.337Z,48.30
2019-05-13T16:03:35.692Z,47.70
2019-05-13T16:06:41.813Z,49.50
2019-05-13T16:09:46.046Z,50.00
2019-05-13T16:12:51.822Z,49.60
2019-05-13T16:15:56.421Z,49.10
2019-05-13T16:19:00.791Z,47.60
2019-05-13T16:22:05.223Z,47.90
2019-05-13T16:25:09.789Z,45.40
2019-05-13T16:28:16.015Z,46.90
2019-05-13T16:31:20.380Z,47.20
2019-05-13T16:34:24.706Z,48.00
2019-05-13T16:37:31.236Z,45.30
2019-05-13T16:40:36.677Z,43.00
2019-05-13T16:43:42.646Z,44.60
2019-05-13T16:46:47.308Z,45.50
2019-05-13T16:49:51.938Z,45.30
2019-05-13T16:52:56.268Z,46.00
2019-05-13T16:56:01.775Z,46.80
2019-05-13T16:59:06.375Z,47.40
2019-05-13T17:02:12.618Z,47.80
2019-05-13T17:05:17.253Z,46.90
2019-05-13T17:08:21.584Z,44.80
2019-05-13T17:11:45.051Z,47.00
2019-05-13T17:14:49.440Z,47.80
2019-05-13T17:18:08.433Z,47.50
2019-05-13T17:21:01.725Z,47.70
2019-05-13T17:24:06.233Z,47.80
2019-05-13T17:27:12.163Z,48.60
2019-05-13T17:30:16.962Z,48.60
2019-05-13T17:33:23.052Z,48.50
2019-05-13T17:36:27.581Z,49.00
2019-05-13T17:39:32.246Z,48.90
2019-05-13T17:42:36.710Z,47.00
2019-05-13T17:45:41.687Z,48.50
2019-05-13T17:48:46.255Z,49.00
2019-05-13T17:51:51.686Z,49.40
2019-05-13T17:54:56.277Z,49.70
2019-05-13T17:58:01.444Z,49.90
2019-05-13T18:01:05.896Z,50.20
2019-05-13T18:04:11.759Z,50.40
2019-05-13T18:07:16.401Z,50.60
2019-05-13T18:10:22.542Z,50.80
2019-05-13T18:13:27.443Z,51.20
2019-05-13T18:16:32.879Z,51.30
2019-05-13T18:19:37.256Z,51.50
2019-05-13T18:22:42.148Z,51.60
2019-05-13T18:25:47.509Z,51.80
2019-05-13T18:28:51.902Z,52.10
2019-05-13T18:31:56.285Z,52.20
2019-05-13T18:35:01.673Z,52.20
2019-05-13T18:38:06.308Z,52.30
2019-05-13T18:41:11.990Z,52.30
2019-05-13T18:44:16.543Z,52.40
2019-05-13T18:47:22.115Z,52.50
2019-05-13T18:50:26.854Z,52.50
2019-05-13T18:53:32.075Z,52.60
2019-05-13T18:56:36.693Z,52.70
2019-05-13T18:59:42.748Z,52.70
2019-05-13T19:02:47.688Z,52.80
2019-05-13T19:05:52.096Z,53.10
2019-05-13T19:08:56.452Z,53.20
2019-05-13T19:12:03.436Z,53.40
2019-05-13T19:15:11.368Z,53.50
2019-05-13T19:18:15.889Z,53.70
2019-05-13T19:21:21.907Z,53.70
2019-05-13T19:24:45.440Z,54.00
2019-05-13T19:27:51.712Z,53.70
2019-05-13T19:30:56.909Z,54.10
2019-05-13T19:34:01.551Z,54.00
2019-05-13T19:37:06.031Z,54.20
2019-05-13T19:40:31.260Z,54.40
2019-05-13T19:43:36.921Z,54.20
2019-05-13T19:46:42.092Z,54.80
2019-05-13T19:49:58.291Z,54.90
2019-05-13T19:53:02.704Z,54.80
2019-05-13T19:56:07.048Z,55.40
2019-05-13T19:59:12.429Z,55.50
2019-05-13T20:02:17.071Z,56.30
2019-05-13T20:05:23.214Z,56.00
2019-05-13T20:08:27.410Z,56.20
2019-05-13T20:11:31.797Z,56.30
2019-05-13T20:14:36.202Z,56.50
2019-05-13T20:17:41.574Z,56.60
2019-05-13T20:20:46.149Z,56.80
2019-05-13T20:23:51.894Z,56.80
2019-05-13T20:26:56.247Z,56.80
2019-05-13T20:30:01.616Z,56.80
2019-05-13T20:33:06.241Z,56.90
2019-05-13T20:36:11.853Z,56.90
2019-05-13T20:39:16.338Z,57.10
2019-05-13T20:42:20.636Z,57.10
2019-05-13T20:45:24.945Z,57.40
2019-05-13T20:48:31.780Z,57.40
2019-05-13T20:51:35.340Z,57.50
2019-05-13T20:54:41.598Z,57.70
2019-05-13T20:57:45.657Z,57.80
2019-05-13T21:00:51.507Z,57.80
2019-05-13T21:03:55.945Z,57.80
2019-05-13T21:07:02.112Z,57.90
2019-05-13T21:10:06.326Z,58.00
2019-05-13T21:13:12.231Z,58.00
2019-05-13T21:16:16.693Z,58.00
2019-05-13T21:19:22.062Z,58.20
2019-05-13T21:22:26.536Z,57.60
2019-05-13T21:25:31.195Z,57.60
2019-05-13T21:28:35.570Z,57.50
2019-05-13T21:31:41.423Z,57.60
2019-05-13T21:34:45.937Z,57.70
2019-05-13T21:37:51.219Z,57.90
2019-05-13T21:40:55.722Z,58.00
2019-05-13T21:44:01.265Z,58.00
2019-05-13T21:47:05.697Z,57.90
2019-05-13T21:50:11.556Z,57.80
2019-05-13T21:53:16.068Z,58.00
2019-05-13T21:56:22.958Z,57.80
2019-05-13T21:59:26.346Z,57.90
2019-05-13T22:02:31.725Z,57.70
2019-05-13T22:05:36.094Z,57.60
2019-05-13T22:08:41.293Z,57.40
2019-05-13T22:11:45.878Z,57.40
2019-05-13T22:14:51.720Z,55.80
2019-05-13T22:17:56.286Z,56.20
2019-05-13T22:21:01.326Z,55.30
2019-05-13T22:24:05.915Z,56.10
2019-05-13T22:27:13.004Z,56.10
2019-05-13T22:30:16.983Z,56.60
2019-05-13T22:33:21.693Z,56.90
2019-05-13T22:36:25.965Z,57.10
2019-05-13T22:39:34.474Z,57.30
2019-05-13T22:42:36.374Z,57.40
2019-05-13T22:45:41.884Z,57.50
2019-05-13T22:48:46.534Z,57.70
2019-05-13T22:51:51.571Z,57.70
2019-05-13T22:54:56.091Z,57.70
2019-05-13T22:58:01.548Z,57.60
2019-05-13T23:01:06.029Z,57.60
2019-05-13T23:04:11.468Z,57.50
2019-05-13T23:07:15.999Z,57.60
2019-05-13T23:10:22.498Z,57.70
2019-05-13T23:13:26.399Z,57.80
2019-05-13T23:16:31.595Z,57.90
2019-05-13T23:19:36.204Z,57.80
2019-05-13T23:22:41.488Z,57.90
2019-05-13T23:25:46.116Z,57.80
2019-05-13T23:28:52.181Z,57.80
2019-05-13T23:31:56.686Z,57.80
2019-05-13T23:35:02.010Z,57.60
2019-05-13T23:38:06.619Z,57.70
2019-05-13T23:41:12.134Z,57.70
2019-05-13T23:44:25.049Z,57.80
2019-05-13T23:47:43.356Z,57.90
2019-05-13T23:50:47.772Z,57.50
2019-05-13T23:53:52.066Z,58.00
2019-05-13T23:56:56.390Z,57.90
